sensor_id;sensor_type;location;lat;lon;timestamp;pressure;altitude;pressure_sealevel;temperature;humidity
25947;BME280;13745;51.470;9.894;2023-05-31T00:00:54;100226.63;;;12.95;79.56
25947;BME280;13745;51.470;9.894;2023-05-31T00:03:39;100225.81;;;12.91;79.37
25947;BME280;13745;51.470;9.894;2023-05-31T00:06:24;100226.66;;;12.90;79.41
25947;BME280;13745;51.470;9.894;2023-05-31T00:09:09;100224.09;;;12.87;79.42
25947;BME280;13745;51.470;9.894;2023-05-31T00:11:55;100214.59;;;12.85;79.54
25947;BME280;13745;51.470;9.894;2023-05-31T00:14:39;100220.66;;;12.84;79.85
25947;BME280;13745;51.470;9.894;2023-05-31T00:17:26;100221.53;;;12.81;79.94
25947;BME280;13745;51.470;9.894;2023-05-31T00:20:11;100222.44;;;12.79;79.96
25947;BME280;13745;51.470;9.894;2023-05-31T00:22:56;100225.94;;;12.76;79.84
25947;BME280;13745;51.470;9.894;2023-05-31T00:25:41;100233.75;;;12.73;79.94
25947;BME280;13745;51.470;9.894;2023-05-31T00:28:26;100224.25;;;12.71;80.06
25947;BME280;13745;51.470;9.894;2023-05-31T00:31:11;100223.41;;;12.69;80.24
25947;BME280;13745;51.470;9.894;2023-05-31T00:33:57;100225.16;;;12.67;80.30
25947;BME280;13745;51.470;9.894;2023-05-31T00:36:43;100226.03;;;12.64;80.55
25947;BME280;13745;51.470;9.894;2023-05-31T00:39:28;100227.78;;;12.62;80.46
25947;BME280;13745;51.470;9.894;2023-05-31T00:42:15;100220.88;;;12.58;80.55
25947;BME280;13745;51.470;9.894;2023-05-31T00:45:00;100213.06;;;12.56;80.74
25947;BME280;13745;51.470;9.894;2023-05-31T00:47:46;100219.19;;;12.54;80.77
25947;BME280;13745;51.470;9.894;2023-05-31T00:50:33;100225.28;;;12.50;80.64
25947;BME280;13745;51.470;9.894;2023-05-31T00:53:19;100229.63;;;12.48;80.81
25947;BME280;13745;51.470;9.894;2023-05-31T00:56:07;100224.47;;;12.43;80.77
25947;BME280;13745;51.470;9.894;2023-05-31T00:58:54;100235.75;;;12.39;81.02
25947;BME280;13745;51.470;9.894;2023-05-31T01:01:41;100234.06;;;12.32;81.06
25947;BME280;13745;51.470;9.894;2023-05-31T01:04:26;100243.59;;;12.31;81.13
25947;BME280;13745;51.470;9.894;2023-05-31T01:07:13;100232.34;;;12.31;81.54
25947;BME280;13745;51.470;9.894;2023-05-31T01:09:58;100229.75;;;12.28;81.29
25947;BME280;13745;51.470;9.894;2023-05-31T01:12:52;100227.19;;;12.22;81.42
25947;BME280;13745;51.470;9.894;2023-05-31T01:15:43;100225.50;;;12.16;81.45
25947;BME280;13745;51.470;9.894;2023-05-31T01:18:35;100225.56;;;12.10;81.78
25947;BME280;13745;51.470;9.894;2023-05-31T01:21:26;100235.97;;;12.08;81.78
25947;BME280;13745;51.470;9.894;2023-05-31T01:24:25;100227.28;;;12.05;81.97
25947;BME280;13745;51.470;9.894;2023-05-31T01:27:15;100224.72;;;12.02;81.74
25947;BME280;13745;51.470;9.894;2023-05-31T01:30:01;100225.59;;;12.01;82.09
25947;BME280;13745;51.470;9.894;2023-05-31T01:32:47;100230.78;;;11.98;82.11
25947;BME280;13745;51.470;9.894;2023-05-31T01:35:33;100225.59;;;11.99;81.96
25947;BME280;13745;51.470;9.894;2023-05-31T01:38:18;100220.41;;;11.96;82.17
25947;BME280;13745;51.470;9.894;2023-05-31T01:41:04;100221.31;;;11.89;82.10
25947;BME280;13745;51.470;9.894;2023-05-31T01:43:53;100224.81;;;11.87;82.27
25947;BME280;13745;51.470;9.894;2023-05-31T01:46:40;100223.94;;;11.86;82.40
25947;BME280;13745;51.470;9.894;2023-05-31T01:49:26;100224.84;;;11.84;82.44
25947;BME280;13745;51.470;9.894;2023-05-31T01:52:14;100230.88;;;11.81;82.66
25947;BME280;13745;51.470;9.894;2023-05-31T01:55:00;100219.59;;;11.79;82.66
25947;BME280;13745;51.470;9.894;2023-05-31T01:57:46;100223.97;;;11.77;82.47
25947;BME280;13745;51.470;9.894;2023-05-31T02:00:35;100222.22;;;11.74;82.65
25947;BME280;13745;51.470;9.894;2023-05-31T02:03:20;100225.69;;;11.73;82.71
25947;BME280;13745;51.470;9.894;2023-05-31T02:06:06;100221.38;;;11.71;82.70
25947;BME280;13745;51.470;9.894;2023-05-31T02:08:51;100217.06;;;11.70;82.61
25947;BME280;13745;51.470;9.894;2023-05-31T02:11:36;100219.66;;;11.68;82.69
25947;BME280;13745;51.470;9.894;2023-05-31T02:14:21;100216.19;;;11.66;82.91
25947;BME280;13745;51.470;9.894;2023-05-31T02:17:07;100224.00;;;11.65;82.92
25947;BME280;13745;51.470;9.894;2023-05-31T02:19:53;100220.53;;;11.64;82.82
25947;BME280;13745;51.470;9.894;2023-05-31T02:22:39;100217.97;;;11.61;83.05
25947;BME280;13745;51.470;9.894;2023-05-31T02:25:25;100230.09;;;11.61;83.04
25947;BME280;13745;51.470;9.894;2023-05-31T02:28:10;100228.34;;;11.58;82.87
25947;BME280;13745;51.470;9.894;2023-05-31T02:30:57;100231.81;;;11.56;82.99
25947;BME280;13745;51.470;9.894;2023-05-31T02:33:43;100224.06;;;11.52;83.09
25947;BME280;13745;51.470;9.894;2023-05-31T02:36:29;100236.16;;;11.49;83.15
25947;BME280;13745;51.470;9.894;2023-05-31T02:39:14;100231.84;;;11.46;83.26
25947;BME280;13745;51.470;9.894;2023-05-31T02:41:59;100233.59;;;11.44;83.29
25947;BME280;13745;51.470;9.894;2023-05-31T02:44:44;100236.19;;;11.40;83.38
25947;BME280;13745;51.470;9.894;2023-05-31T02:47:30;100235.34;;;11.39;83.37
25947;BME280;13745;51.470;9.894;2023-05-31T02:50:16;100234.47;;;11.37;83.50
25947;BME280;13745;51.470;9.894;2023-05-31T02:53:10;100237.09;;;11.36;83.25
25947;BME280;13745;51.470;9.894;2023-05-31T02:56:07;100241.44;;;11.34;83.34
25947;BME280;13745;51.470;9.894;2023-05-31T02:59:06;100230.19;;;11.29;83.39
25947;BME280;13745;51.470;9.894;2023-05-31T03:02:05;100230.19;;;11.21;83.58
25947;BME280;13745;51.470;9.894;2023-05-31T03:05:08;100227.59;;;11.16;83.86
25947;BME280;13745;51.470;9.894;2023-05-31T03:07:57;100227.59;;;11.15;84.01
25947;BME280;13745;51.470;9.894;2023-05-31T03:10:42;100225.88;;;11.14;83.93
25947;BME280;13745;51.470;9.894;2023-05-31T03:13:27;100220.69;;;11.12;83.68
25947;BME280;13745;51.470;9.894;2023-05-31T03:16:13;100226.75;;;11.11;83.83
25947;BME280;13745;51.470;9.894;2023-05-31T03:18:58;100225.88;;;11.08;84.04
25947;BME280;13745;51.470;9.894;2023-05-31T03:21:43;100229.38;;;11.02;84.28
25947;BME280;13745;51.470;9.894;2023-05-31T03:24:29;100226.78;;;10.97;84.20
25947;BME280;13745;51.470;9.894;2023-05-31T03:27:15;100231.09;;;10.95;84.23
25947;BME280;13745;51.470;9.894;2023-05-31T03:30:01;100232.84;;;10.96;84.07
25947;BME280;13745;51.470;9.894;2023-05-31T03:32:48;100232.84;;;10.96;84.59
25947;BME280;13745;51.470;9.894;2023-05-31T03:35:34;100235.44;;;10.96;84.18
25947;BME280;13745;51.470;9.894;2023-05-31T03:38:21;100230.25;;;10.93;84.19
25947;BME280;13745;51.470;9.894;2023-05-31T03:41:08;100238.88;;;10.89;84.37
25947;BME280;13745;51.470;9.894;2023-05-31T03:43:54;100233.72;;;10.86;84.22
25947;BME280;13745;51.470;9.894;2023-05-31T03:46:38;100239.75;;;10.88;84.52
25947;BME280;13745;51.470;9.894;2023-05-31T03:49:24;100240.59;;;10.92;84.51
25947;BME280;13745;51.470;9.894;2023-05-31T03:52:09;100232.84;;;10.93;84.53
25947;BME280;13745;51.470;9.894;2023-05-31T03:54:57;100232.84;;;10.96;84.23
25947;BME280;13745;51.470;9.894;2023-05-31T03:57:43;100238.03;;;10.95;84.49
25947;BME280;13745;51.470;9.894;2023-05-31T04:00:29;100238.03;;;10.96;84.53
25947;BME280;13745;51.470;9.894;2023-05-31T04:03:15;100231.09;;;11.00;84.50
25947;BME280;13745;51.470;9.894;2023-05-31T04:06:00;100238.03;;;11.01;84.62
25947;BME280;13745;51.470;9.894;2023-05-31T04:08:45;100237.16;;;11.05;84.76
25947;BME280;13745;51.470;9.894;2023-05-31T04:11:30;100232.81;;;11.10;84.65
25947;BME280;13745;51.470;9.894;2023-05-31T04:14:17;100234.53;;;11.17;84.72
25947;BME280;13745;51.470;9.894;2023-05-31T04:17:04;100237.97;;;11.22;84.71
25947;BME280;13745;51.470;9.894;2023-05-31T04:19:50;100250.06;;;11.25;84.62
25947;BME280;13745;51.470;9.894;2023-05-31T04:22:36;100251.81;;;11.28;84.84
25947;BME280;13745;51.470;9.894;2023-05-31T04:25:21;100254.41;;;11.28;84.24
25947;BME280;13745;51.470;9.894;2023-05-31T04:28:06;100259.59;;;11.31;84.82
25947;BME280;13745;51.470;9.894;2023-05-31T04:30:52;100258.72;;;11.36;84.82
25947;BME280;13745;51.470;9.894;2023-05-31T04:33:41;100253.53;;;11.42;84.84
25947;BME280;13745;51.470;9.894;2023-05-31T04:36:28;100255.19;;;11.49;84.89
25947;BME280;13745;51.470;9.894;2023-05-31T04:39:13;100255.19;;;11.56;85.07
25947;BME280;13745;51.470;9.894;2023-05-31T04:42:01;100251.72;;;11.63;84.97
25947;BME280;13745;51.470;9.894;2023-05-31T04:44:46;100249.06;;;11.72;84.76
25947;BME280;13745;51.470;9.894;2023-05-31T04:47:34;100245.59;;;11.79;85.06
25947;BME280;13745;51.470;9.894;2023-05-31T04:50:19;100244.75;;;11.85;84.60
25947;BME280;13745;51.470;9.894;2023-05-31T04:53:04;100249.03;;;11.89;84.49
25947;BME280;13745;51.470;9.894;2023-05-31T04:55:50;100251.63;;;11.93;84.48
25947;BME280;13745;51.470;9.894;2023-05-31T04:58:36;100252.44;;;12.01;84.45
25947;BME280;13745;51.470;9.894;2023-05-31T05:01:22;100255.00;;;12.07;84.17
25947;BME280;13745;51.470;9.894;2023-05-31T05:04:26;100254.06;;;12.16;84.20
25947;BME280;13745;51.470;9.894;2023-05-31T05:07:12;100258.38;;;12.26;84.17
25947;BME280;13745;51.470;9.894;2023-05-31T05:09:57;100261.75;;;12.37;84.13
25947;BME280;13745;51.470;9.894;2023-05-31T05:12:42;100250.41;;;12.51;84.07
25947;BME280;13745;51.470;9.894;2023-05-31T05:15:27;100264.19;;;12.67;83.95
25947;BME280;13745;51.470;9.894;2023-05-31T05:18:13;100269.22;;;12.82;83.76
25947;BME280;13745;51.470;9.894;2023-05-31T05:21:00;100262.19;;;12.94;83.75
25947;BME280;13745;51.470;9.894;2023-05-31T05:23:48;100258.59;;;13.09;83.52
25947;BME280;13745;51.470;9.894;2023-05-31T05:26:33;100258.47;;;13.23;83.30
25947;BME280;13745;51.470;9.894;2023-05-31T05:29:18;100268.75;;;13.37;83.16
25947;BME280;13745;51.470;9.894;2023-05-31T05:32:04;100269.47;;;13.53;82.84
25947;BME280;13745;51.470;9.894;2023-05-31T05:34:50;100269.31;;;13.66;82.51
25947;BME280;13745;51.470;9.894;2023-05-31T05:37:37;100258.69;;;13.82;82.61
25947;BME280;13745;51.470;9.894;2023-05-31T05:40:22;100261.16;;;13.94;82.31
25947;BME280;13745;51.470;9.894;2023-05-31T05:43:07;100249.75;;;14.02;81.89
25947;BME280;13745;51.470;9.894;2023-05-31T05:46:04;100252.16;;;14.18;81.45
25947;BME280;13745;51.470;9.894;2023-05-31T05:48:50;100253.75;;;14.28;81.32
25947;BME280;13745;51.470;9.894;2023-05-31T05:51:38;100257.00;;;14.45;81.25
25947;BME280;13745;51.470;9.894;2023-05-31T05:54:27;100258.50;;;14.60;80.74
25947;BME280;13745;51.470;9.894;2023-05-31T05:57:13;100249.63;;;14.73;80.60
25947;BME280;13745;51.470;9.894;2023-05-31T06:00:01;100258.03;;;14.89;80.45
25947;BME280;13745;51.470;9.894;2023-05-31T06:02:57;100257.88;;;15.00;80.22
25947;BME280;13745;51.470;9.894;2023-05-31T06:05:42;100262.00;;;15.11;79.69
25947;BME280;13745;51.470;9.894;2023-05-31T06:08:27;100264.38;;;15.25;79.49
25947;BME280;13745;51.470;9.894;2023-05-31T06:11:13;100265.88;;;15.37;79.42
25947;BME280;13745;51.470;9.894;2023-05-31T06:14:00;100269.16;;;15.50;78.90
25947;BME280;13745;51.470;9.894;2023-05-31T06:16:52;100265.41;;;15.63;78.60
25947;BME280;13745;51.470;9.894;2023-05-31T06:19:37;100268.66;;;15.76;78.60
25947;BME280;13745;51.470;9.894;2023-05-31T06:22:23;100266.66;;;15.88;78.14
25947;BME280;13745;51.470;9.894;2023-05-31T06:25:08;100269.03;;;16.00;77.95
25947;BME280;13745;51.470;9.894;2023-05-31T06:27:55;100266.16;;;16.11;77.92
25947;BME280;13745;51.470;9.894;2023-05-31T06:30:41;100264.16;;;16.24;77.73
25947;BME280;13745;51.470;9.894;2023-05-31T06:33:26;100271.72;;;16.36;77.16
25947;BME280;13745;51.470;9.894;2023-05-31T06:36:12;100268.00;;;16.46;77.16
25947;BME280;13745;51.470;9.894;2023-05-31T06:38:57;100270.28;;;16.60;76.71
25947;BME280;13745;51.470;9.894;2023-05-31T06:41:42;100266.53;;;16.73;76.43
25947;BME280;13745;51.470;9.894;2023-05-31T06:44:47;100266.19;;;16.87;76.05
25947;BME280;13745;51.470;9.894;2023-05-31T06:47:46;100268.47;;;17.01;75.43
25947;BME280;13745;51.470;9.894;2023-05-31T06:50:40;100263.78;;;17.12;75.37
25947;BME280;13745;51.470;9.894;2023-05-31T06:53:28;100266.16;;;17.23;75.21
25947;BME280;13745;51.470;9.894;2023-05-31T06:56:34;100273.63;;;17.36;74.83
25947;BME280;13745;51.470;9.894;2023-05-31T06:59:19;100266.25;;;17.51;74.55
25947;BME280;13745;51.470;9.894;2023-05-31T07:02:06;100263.13;;;17.69;74.29
25947;BME280;13745;51.470;9.894;2023-05-31T07:04:51;100268.03;;;17.83;73.77
25947;BME280;13745;51.470;9.894;2023-05-31T07:07:37;100266.91;;;17.91;73.23
25947;BME280;13745;51.470;9.894;2023-05-31T07:10:22;100267.47;;;18.01;72.91
25947;BME280;13745;51.470;9.894;2023-05-31T07:13:08;100252.31;;;18.11;72.50
25947;BME280;13745;51.470;9.894;2023-05-31T07:15:54;100260.66;;;18.25;71.87
25947;BME280;13745;51.470;9.894;2023-05-31T07:18:40;100253.16;;;18.41;71.62
25947;BME280;13745;51.470;9.894;2023-05-31T07:21:25;100251.03;;;18.52;71.36
25947;BME280;13745;51.470;9.894;2023-05-31T07:24:10;100250.00;;;18.58;71.04
25947;BME280;13745;51.470;9.894;2023-05-31T07:26:56;100247.09;;;18.67;70.57
25947;BME280;13745;51.470;9.894;2023-05-31T07:29:41;100240.44;;;18.83;70.36
25947;BME280;13745;51.470;9.894;2023-05-31T07:32:26;100239.22;;;18.93;69.88
25947;BME280;13745;51.470;9.894;2023-05-31T07:35:12;100239.50;;;19.11;69.64
25947;BME280;13745;51.470;9.894;2023-05-31T07:37:58;100234.47;;;19.29;69.29
25947;BME280;13745;51.470;9.894;2023-05-31T07:40:43;100233.00;;;19.46;69.01
25947;BME280;13745;51.470;9.894;2023-05-31T07:43:28;100223.72;;;19.60;68.55
25947;BME280;13745;51.470;9.894;2023-05-31T07:46:14;100227.50;;;19.77;68.03
25947;BME280;13745;51.470;9.894;2023-05-31T07:48:59;100227.19;;;19.86;67.55
25947;BME280;13745;51.470;9.894;2023-05-31T07:51:46;100224.91;;;19.99;67.26
25947;BME280;13745;51.470;9.894;2023-05-31T07:54:31;100224.47;;;20.11;67.25
25947;BME280;13745;51.470;9.894;2023-05-31T07:57:16;100210.88;;;20.22;66.93
25947;BME280;13745;51.470;9.894;2023-05-31T08:00:01;100212.06;;;20.35;66.57
25947;BME280;13745;51.470;9.894;2023-05-31T08:02:55;100214.94;;;20.52;66.61
25947;BME280;13745;51.470;9.894;2023-05-31T08:05:41;100201.06;;;20.69;66.42
25947;BME280;13745;51.470;9.894;2023-05-31T08:08:27;100202.31;;;20.81;66.28
25947;BME280;13745;51.470;9.894;2023-05-31T08:11:13;100200.75;;;20.97;65.80
25947;BME280;13745;51.470;9.894;2023-05-31T08:13:58;100198.06;;;21.19;64.69
25947;BME280;13745;51.470;9.894;2023-05-31T08:16:43;100191.25;;;21.34;64.01
25947;BME280;13745;51.470;9.894;2023-05-31T08:19:28;100194.84;;;21.51;63.96
25947;BME280;13745;51.470;9.894;2023-05-31T08:22:13;100191.50;;;21.67;63.09
25947;BME280;13745;51.470;9.894;2023-05-31T08:25:00;100190.81;;;21.82;62.86
25947;BME280;13745;51.470;9.894;2023-05-31T08:27:45;100195.22;;;22.00;62.87
25947;BME280;13745;51.470;9.894;2023-05-31T08:30:31;100192.81;;;22.14;62.60
25947;BME280;13745;51.470;9.894;2023-05-31T08:33:16;100190.38;;;22.29;62.46
25947;BME280;13745;51.470;9.894;2023-05-31T08:36:01;100195.91;;;22.41;61.73
25947;BME280;13745;51.470;9.894;2023-05-31T08:38:47;100186.16;;;22.61;61.86
25947;BME280;13745;51.470;9.894;2023-05-31T08:41:47;100177.13;;;22.82;61.00
25947;BME280;13745;51.470;9.894;2023-05-31T08:44:34;100188.75;;;22.97;60.60
25947;BME280;13745;51.470;9.894;2023-05-31T08:47:23;100182.00;;;23.09;60.78
25947;BME280;13745;51.470;9.894;2023-05-31T08:50:12;100177.75;;;23.22;59.89
25947;BME280;13745;51.470;9.894;2023-05-31T08:52:57;100170.97;;;23.34;59.55
25947;BME280;13745;51.470;9.894;2023-05-31T08:55:44;100174.41;;;23.51;59.61
25947;BME280;13745;51.470;9.894;2023-05-31T08:58:31;100170.69;;;23.71;58.91
25947;BME280;13745;51.470;9.894;2023-05-31T09:01:17;100169.69;;;23.90;58.13
25947;BME280;13745;51.470;9.894;2023-05-31T09:04:03;100170.72;;;24.03;57.35
25947;BME280;13745;51.470;9.894;2023-05-31T09:06:49;100165.50;;;24.17;57.06
25947;BME280;13745;51.470;9.894;2023-05-31T09:09:34;100166.44;;;24.32;57.15
25947;BME280;13745;51.470;9.894;2023-05-31T09:12:19;100160.25;;;24.47;56.41
25947;BME280;13745;51.470;9.894;2023-05-31T09:15:07;100159.44;;;24.61;55.94
25947;BME280;13745;51.470;9.894;2023-05-31T09:17:52;100160.41;;;24.60;55.29
25947;BME280;13745;51.470;9.894;2023-05-31T09:20:40;100153.00;;;24.65;54.93
25947;BME280;13745;51.470;9.894;2023-05-31T09:23:25;100157.97;;;24.71;54.24
25947;BME280;13745;51.470;9.894;2023-05-31T09:26:10;100159.09;;;24.81;54.13
25947;BME280;13745;51.470;9.894;2023-05-31T09:28:55;100156.38;;;24.83;53.56
25947;BME280;13745;51.470;9.894;2023-05-31T09:31:42;100146.69;;;24.82;53.26
25947;BME280;13745;51.470;9.894;2023-05-31T09:34:28;100145.78;;;24.83;53.39
25947;BME280;13745;51.470;9.894;2023-05-31T09:37:23;100144.19;;;24.94;52.32
25947;BME280;13745;51.470;9.894;2023-05-31T09:40:09;100145.84;;;25.11;52.18
25947;BME280;13745;51.470;9.894;2023-05-31T09:42:57;100139.00;;;25.21;52.34
25947;BME280;13745;51.470;9.894;2023-05-31T09:45:47;100131.63;;;25.27;51.98
25947;BME280;13745;51.470;9.894;2023-05-31T09:48:33;100127.53;;;25.35;51.57
25947;BME280;13745;51.470;9.894;2023-05-31T09:51:19;100128.66;;;25.45;51.30
25947;BME280;13745;51.470;9.894;2023-05-31T09:54:10;100122.28;;;25.62;51.11
25947;BME280;13745;51.470;9.894;2023-05-31T09:56:55;100121.56;;;25.74;50.94
25947;BME280;13745;51.470;9.894;2023-05-31T09:59:41;100125.97;;;25.88;50.53
25947;BME280;13745;51.470;9.894;2023-05-31T10:02:26;100114.66;;;25.99;50.30
25947;BME280;13745;51.470;9.894;2023-05-31T10:05:14;100112.25;;;26.09;50.46
25947;BME280;13745;51.470;9.894;2023-05-31T10:08:00;100107.72;;;26.23;50.29
25947;BME280;13745;51.470;9.894;2023-05-31T10:10:45;100115.09;;;26.32;49.06
25947;BME280;13745;51.470;9.894;2023-05-31T10:13:31;100105.84;;;26.38;48.38
25947;BME280;13745;51.470;9.894;2023-05-31T10:16:17;100113.06;;;26.36;49.25
25947;BME280;13745;51.470;9.894;2023-05-31T10:19:06;100108.31;;;26.41;49.44
25947;BME280;13745;51.470;9.894;2023-05-31T10:21:56;100102.16;;;26.41;48.55
25947;BME280;13745;51.470;9.894;2023-05-31T10:24:48;100095.56;;;26.46;48.80
25947;BME280;13745;51.470;9.894;2023-05-31T10:27:37;100099.59;;;26.52;48.70
25947;BME280;13745;51.470;9.894;2023-05-31T10:30:24;100100.34;;;26.54;47.46
25947;BME280;13745;51.470;9.894;2023-05-31T10:33:14;100091.34;;;26.56;48.23
25947;BME280;13745;51.470;9.894;2023-05-31T10:36:00;100094.63;;;26.73;47.80
25947;BME280;13745;51.470;9.894;2023-05-31T10:38:52;100098.25;;;26.84;47.23
25947;BME280;13745;51.470;9.894;2023-05-31T10:41:43;100089.63;;;26.94;47.21
25947;BME280;13745;51.470;9.894;2023-05-31T10:44:35;100089.41;;;26.97;46.94
25947;BME280;13745;51.470;9.894;2023-05-31T10:47:26;100078.91;;;27.08;47.57
25947;BME280;13745;51.470;9.894;2023-05-31T10:50:17;100075.38;;;27.20;47.65
25947;BME280;13745;51.470;9.894;2023-05-31T10:53:10;100070.22;;;27.30;47.11
25947;BME280;13745;51.470;9.894;2023-05-31T10:56:02;100072.16;;;27.28;46.89
25947;BME280;13745;51.470;9.894;2023-05-31T10:58:49;100070.66;;;27.36;46.94
25947;BME280;13745;51.470;9.894;2023-05-31T11:01:35;100073.59;;;27.44;46.97
25947;BME280;13745;51.470;9.894;2023-05-31T11:04:21;100062.09;;;27.44;47.08
25947;BME280;13745;51.470;9.894;2023-05-31T11:07:13;100059.63;;;27.54;47.01
25947;BME280;13745;51.470;9.894;2023-05-31T11:09:59;100057.72;;;27.56;47.09
25947;BME280;13745;51.470;9.894;2023-05-31T11:12:46;100054.09;;;27.57;47.00
25947;BME280;13745;51.470;9.894;2023-05-31T11:15:42;100055.06;;;27.56;47.07
25947;BME280;13745;51.470;9.894;2023-05-31T11:18:27;100053.31;;;27.55;47.74
25947;BME280;13745;51.470;9.894;2023-05-31T11:21:44;100047.38;;;27.51;47.36
25947;BME280;13745;51.470;9.894;2023-05-31T11:24:31;100048.47;;;27.49;47.63
25947;BME280;13745;51.470;9.894;2023-05-31T11:27:18;100039.38;;;27.51;47.99
25947;BME280;13745;51.470;9.894;2023-05-31T11:30:08;100040.53;;;27.60;47.30
25947;BME280;13745;51.470;9.894;2023-05-31T11:32:58;100039.16;;;27.67;46.84
25947;BME280;13745;51.470;9.894;2023-05-31T11:35:43;100044.88;;;27.74;47.34
25947;BME280;13745;51.470;9.894;2023-05-31T11:38:29;100037.84;;;27.73;46.93
25947;BME280;13745;51.470;9.894;2023-05-31T11:41:14;100033.38;;;27.73;46.61
25947;BME280;13745;51.470;9.894;2023-05-31T11:44:00;100032.28;;;27.76;46.90
25947;BME280;13745;51.470;9.894;2023-05-31T11:46:49;100033.75;;;27.80;47.17
25947;BME280;13745;51.470;9.894;2023-05-31T11:49:41;100024.13;;;27.90;46.80
25947;BME280;13745;51.470;9.894;2023-05-31T11:52:27;100025.25;;;27.98;47.15
25947;BME280;13745;51.470;9.894;2023-05-31T11:55:15;100012.66;;;28.01;47.37
25947;BME280;13745;51.470;9.894;2023-05-31T11:58:01;100019.34;;;28.06;47.45
25947;BME280;13745;51.470;9.894;2023-05-31T12:00:50;100014.09;;;28.05;46.85
25947;BME280;13745;51.470;9.894;2023-05-31T12:03:40;100006.84;;;28.07;46.89
25947;BME280;13745;51.470;9.894;2023-05-31T12:06:25;100008.69;;;28.06;47.17
25947;BME280;13745;51.470;9.894;2023-05-31T12:09:12;100006.94;;;28.05;46.88
25947;BME280;13745;51.470;9.894;2023-05-31T12:11:57;100011.69;;;28.02;47.22
25947;BME280;13745;51.470;9.894;2023-05-31T12:14:49;100002.94;;;27.99;46.77
25947;BME280;13745;51.470;9.894;2023-05-31T12:17:34;100005.09;;;27.94;46.62
25947;BME280;13745;51.470;9.894;2023-05-31T12:20:21;99998.19;;;27.92;46.93
25947;BME280;13745;51.470;9.894;2023-05-31T12:23:13;99996.56;;;27.78;47.08
25947;BME280;13745;51.470;9.894;2023-05-31T12:26:00;99991.88;;;27.82;47.22
25947;BME280;13745;51.470;9.894;2023-05-31T12:28:45;99982.44;;;27.89;47.45
25947;BME280;13745;51.470;9.894;2023-05-31T12:31:34;99990.06;;;27.93;47.31
25947;BME280;13745;51.470;9.894;2023-05-31T12:34:20;99989.75;;;27.98;47.02
25947;BME280;13745;51.470;9.894;2023-05-31T12:37:08;99986.91;;;27.88;47.27
25947;BME280;13745;51.470;9.894;2023-05-31T12:40:07;99984.06;;;27.79;47.47
25947;BME280;13745;51.470;9.894;2023-05-31T12:42:59;99983.50;;;27.62;47.77
25947;BME280;13745;51.470;9.894;2023-05-31T12:45:44;99983.59;;;27.61;47.64
25947;BME280;13745;51.470;9.894;2023-05-31T12:48:30;99981.06;;;27.59;47.68
25947;BME280;13745;51.470;9.894;2023-05-31T12:51:20;99969.03;;;27.54;47.58
25947;BME280;13745;51.470;9.894;2023-05-31T12:54:11;99978.06;;;27.64;47.06
25947;BME280;13745;51.470;9.894;2023-05-31T12:56:57;99967.25;;;27.78;47.70
25947;BME280;13745;51.470;9.894;2023-05-31T12:59:42;99962.69;;;27.91;47.91
25947;BME280;13745;51.470;9.894;2023-05-31T13:02:29;99964.72;;;27.88;47.72
25947;BME280;13745;51.470;9.894;2023-05-31T13:05:14;99966.09;;;27.93;47.59
25947;BME280;13745;51.470;9.894;2023-05-31T13:07:59;99958.22;;;27.92;46.81
25947;BME280;13745;51.470;9.894;2023-05-31T13:10:45;99956.72;;;27.88;47.67
25947;BME280;13745;51.470;9.894;2023-05-31T13:13:30;99957.00;;;27.96;47.22
25947;BME280;13745;51.470;9.894;2023-05-31T13:16:15;99951.44;;;27.99;47.46
25947;BME280;13745;51.470;9.894;2023-05-31T13:19:01;99951.94;;;28.04;47.38
25947;BME280;13745;51.470;9.894;2023-05-31T13:21:47;99945.88;;;28.13;47.00
25947;BME280;13745;51.470;9.894;2023-05-31T13:24:32;99949.44;;;28.25;47.18
25947;BME280;13745;51.470;9.894;2023-05-31T13:27:19;99946.44;;;28.30;46.79
25947;BME280;13745;51.470;9.894;2023-05-31T13:30:05;99947.44;;;28.40;46.80
25947;BME280;13745;51.470;9.894;2023-05-31T13:32:51;99949.50;;;28.47;46.81
25947;BME280;13745;51.470;9.894;2023-05-31T13:35:37;99941.72;;;28.44;46.83
25947;BME280;13745;51.470;9.894;2023-05-31T13:38:24;99945.09;;;28.46;46.57
25947;BME280;13745;51.470;9.894;2023-05-31T13:41:09;99950.69;;;28.43;46.90
25947;BME280;13745;51.470;9.894;2023-05-31T13:43:56;99931.31;;;28.41;45.99
25947;BME280;13745;51.470;9.894;2023-05-31T13:46:41;99939.06;;;28.44;45.93
25947;BME280;13745;51.470;9.894;2023-05-31T13:49:26;99932.50;;;28.37;45.81
25947;BME280;13745;51.470;9.894;2023-05-31T13:52:11;99928.50;;;28.32;45.77
25947;BME280;13745;51.470;9.894;2023-05-31T13:54:58;99928.63;;;28.30;46.52
25947;BME280;13745;51.470;9.894;2023-05-31T13:57:44;99928.94;;;28.25;46.39
25947;BME280;13745;51.470;9.894;2023-05-31T14:00:31;99920.09;;;28.14;46.28
25947;BME280;13745;51.470;9.894;2023-05-31T14:03:16;99915.44;;;28.05;46.58
25947;BME280;13745;51.470;9.894;2023-05-31T14:06:02;99917.75;;;27.98;47.03
25947;BME280;13745;51.470;9.894;2023-05-31T14:08:47;99917.84;;;27.96;47.32
25947;BME280;13745;51.470;9.894;2023-05-31T14:11:32;99915.81;;;27.89;47.27
25947;BME280;13745;51.470;9.894;2023-05-31T14:14:17;99916.59;;;27.78;47.44
25947;BME280;13745;51.470;9.894;2023-05-31T14:17:04;99914.53;;;27.70;47.42
25947;BME280;13745;51.470;9.894;2023-05-31T14:19:49;99914.84;;;27.66;47.36
25947;BME280;13745;51.470;9.894;2023-05-31T14:22:34;99914.13;;;27.64;47.69
25947;BME280;13745;51.470;9.894;2023-05-31T14:25:19;99901.47;;;27.55;47.72
25947;BME280;13745;51.470;9.894;2023-05-31T14:28:04;99901.47;;;27.55;47.61
25947;BME280;13745;51.470;9.894;2023-05-31T14:30:49;99901.72;;;27.52;47.89
25947;BME280;13745;51.470;9.894;2023-05-31T14:33:39;99895.53;;;27.51;47.80
25947;BME280;13745;51.470;9.894;2023-05-31T14:36:24;99898.16;;;27.40;47.81